Time;durP1;ratioP1;P1;durP2;ratioP2;P2;SDS_P1;SDS_P2;PMS_P1;PMS_P2;Temp;Humidity;BMP_temperature;BMP_pressure;BME280_temperature;BME280_humidity;BME280_pressure;Samples;Min_cycle;Max_cycle;Signal;HPM_P1;HPM_P2
2024/01/10 00:00:08;;;;;;;8.57;2.97;;;-5.10;99.90;;;-4.34;100.00;99093.00;5040385;28;20465;-81
2024/01/10 00:02:37;;;;;;;11.33;4.30;;;-5.00;98.90;;;-4.37;100.00;99082.94;5040594;28;20803;-81
2024/01/10 00:05:07;;;;;;;13.50;4.50;;;-5.00;99.90;;;-4.39;100.00;99089.81;5039365;28;20469;-82
2024/01/10 00:07:37;;;;;;;9.50;4.50;;;-4.90;99.90;;;-4.45;100.00;99085.00;5039453;28;20465;-82
2024/01/10 00:10:07;;;;;;;13.70;4.53;;;-5.00;99.90;;;-4.43;100.00;99090.84;5039893;28;20501;-81
2024/01/10 00:12:36;;;;;;;6.83;4.30;;;-5.10;99.90;;;-4.46;100.00;99090.97;5039445;28;20453;-81
2024/01/10 00:15:06;;;;;;;7.23;3.83;;;-5.10;99.90;;;-4.48;100.00;99082.56;5038726;28;20511;-81
2024/01/10 00:17:35;;;;;;;7.93;4.00;;;-5.10;99.90;;;-4.48;100.00;99080.03;5039694;28;20517;-81
2024/01/10 00:20:04;;;;;;;8.43;4.60;;;-5.00;99.90;;;-4.51;100.00;99087.81;5036918;28;20813;-82
2024/01/10 00:22:33;;;;;;;11.40;4.40;;;-5.20;99.90;;;-4.45;100.00;99085.81;5036774;28;20473;-82
2024/01/10 00:25:04;;;;;;;5.53;3.70;;;-5.10;98.40;;;-4.42;100.00;99089.94;5038306;28;20805;-81
2024/01/10 00:27:33;;;;;;;9.40;4.27;;;-5.00;99.40;;;-4.44;100.00;99084.09;5035565;28;20451;-81
2024/01/10 00:30:02;;;;;;;2.97;2.67;;;-5.00;99.30;;;-4.50;100.00;99089.44;5036845;28;20596;-81
2024/01/10 00:32:31;;;;;;;9.50;3.50;;;-5.10;99.90;;;-4.51;100.00;99087.81;5039219;28;20453;-81
2024/01/10 00:34:59;;;;;;;9.83;4.23;;;-5.10;99.90;;;-4.57;100.00;99089.72;5036745;28;20436;-81
2024/01/10 00:37:28;;;;;;;8.67;3.93;;;-5.20;99.90;;;-4.62;100.00;99089.09;5036575;28;20432;-82
2024/01/10 00:39:57;;;;;;;12.00;4.23;;;-5.20;99.90;;;-4.61;100.00;99087.38;5038534;28;20496;-81
2024/01/10 00:42:27;;;;;;;6.50;3.83;;;-5.20;99.90;;;-4.65;100.00;99081.56;5036365;28;20457;-82
2024/01/10 00:44:55;;;;;;;7.70;4.70;;;-5.20;99.90;;;-4.64;100.00;99079.84;5038456;28;20960;-81
2024/01/10 00:47:24;;;;;;;9.63;4.73;;;-5.30;99.90;;;-4.70;100.00;99075.88;5037218;28;21053;-81
2024/01/10 00:49:52;;;;;;;5.47;3.63;;;-5.40;99.90;;;-4.76;100.00;99081.25;5037695;28;20525;-81
2024/01/10 00:52:21;;;;;;;10.20;3.40;;;-5.40;99.90;;;-4.77;100.00;99077.03;5036852;28;20451;-81
2024/01/10 00:54:49;;;;;;;9.80;4.40;;;-5.40;99.90;;;-4.87;100.00;99069.84;5038012;28;20431;-81
2024/01/10 00:57:17;;;;;;;8.83;3.60;;;-5.60;99.90;;;-4.84;100.00;99073.09;5036505;28;20447;-81
2024/01/10 00:59:47;;;;;;;5.30;3.43;;;-5.50;99.90;;;-4.93;100.00;99073.50;5036708;28;20519;-82
2024/01/10 01:02:16;;;;;;;8.17;4.10;;;-5.70;99.90;;;-4.88;100.00;99074.09;5036947;28;20442;-81
2024/01/10 01:04:45;;;;;;;6.93;3.37;;;-5.60;99.90;;;-4.91;100.00;99079.34;5036109;28;20466;-82
2024/01/10 01:07:13;;;;;;;12.67;4.87;;;-5.70;99.90;;;-4.87;100.00;99075.78;5037328;28;20451;-81
2024/01/10 01:09:42;;;;;;;7.83;3.93;;;-5.60;99.90;;;-4.77;100.00;99077.03;5040008;28;20913;-81
2024/01/10 01:12:11;;;;;;;6.90;3.53;;;-5.50;99.90;;;-4.77;100.00;99071.09;5038271;28;20498;-82
2024/01/10 01:14:39;;;;;;;7.50;3.97;;;-5.50;99.90;;;-4.72;100.00;99064.88;5037162;28;20435;-81
2024/01/10 01:17:09;;;;;;;7.80;3.43;;;-5.50;99.90;;;-4.69;100.00;99062.22;5040302;28;20460;-82
2024/01/10 01:19:37;;;;;;;7.37;3.20;;;-5.40;99.90;;;-4.69;100.00;99059.69;5039244;28;20470;-81
2024/01/10 01:22:06;;;;;;;9.00;3.43;;;-5.40;99.90;;;-4.75;100.00;99062.47;5035795;28;20469;-81
2024/01/10 01:24:35;;;;;;;5.43;2.80;;;-5.50;99.50;;;-4.72;100.00;99058.97;5037344;28;20429;-82
2024/01/10 01:27:04;;;;;;;7.70;3.77;;;-5.40;99.90;;;-4.79;100.00;99060.94;5039913;28;20490;-81
2024/01/10 01:29:33;;;;;;;4.87;3.33;;;-5.50;99.90;;;-4.87;100.00;99060.47;5037779;28;20462;-81
2024/01/10 01:32:01;;;;;;;9.77;4.43;;;-5.60;99.90;;;-4.93;100.00;99054.81;5037898;28;20498;-81
2024/01/10 01:34:31;;;;;;;9.20;4.37;;;-5.70;99.90;;;-4.92;100.00;99054.72;5036362;28;20464;-81
2024/01/10 01:37:01;;;;;;;8.67;4.07;;;-5.70;99.90;;;-4.96;100.00;99060.03;5039806;28;20478;-81
2024/01/10 01:39:29;;;;;;;7.20;3.97;;;-5.70;99.90;;;-4.99;100.00;99055.06;5039721;28;20450;-82
2024/01/10 01:41:58;;;;;;;11.33;4.13;;;-5.70;99.90;;;-5.04;100.00;99051.88;5038879;28;20473;-82
2024/01/10 01:44:26;;;;;;;6.77;3.60;;;-5.80;99.90;;;-5.05;100.00;99056.16;5039666;28;20450;-81
2024/01/10 01:46:55;;;;;;;11.20;3.40;;;-5.80;99.90;;;-5.04;100.00;99052.72;5035755;28;20470;-81
2024/01/10 01:49:24;;;;;;;6.93;3.60;;;-5.70;99.90;;;-5.13;100.00;99048.81;5039160;28;20440;-81
2024/01/10 01:51:56;;;;;;;6.67;3.87;;;-5.90;99.90;;;-5.13;100.00;99048.00;5035487;28;20990;-82
2024/01/10 01:54:25;;;;;;;11.00;4.53;;;-5.90;99.90;;;-5.12;100.00;99052.22;5033827;28;20469;-82
2024/01/10 01:56:54;;;;;;;10.20;3.20;;;-5.70;99.90;;;-5.14;100.00;99047.16;5036238;28;20458;-82
2024/01/10 01:59:22;;;;;;;6.73;3.07;;;-5.80;99.90;;;-5.06;100.00;99046.84;5036909;28;20432;-81
2024/01/10 02:01:52;;;;;;;5.17;3.40;;;-5.80;99.90;;;-5.14;100.00;99047.16;5037454;28;20437;-81
2024/01/10 02:04:21;;;;;;;6.93;3.30;;;-5.80;99.90;;;-5.19;100.00;99045.72;5038361;28;20472;-81
2024/01/10 02:06:50;;;;;;;6.90;3.97;;;-5.90;99.90;;;-5.21;100.00;99042.41;5037088;28;20458;-82
2024/01/10 02:09:20;;;;;;;7.10;3.10;;;-5.90;99.90;;;-5.23;100.00;99056.91;5037851;28;20435;-81
2024/01/10 02:11:49;;;;;;;7.30;3.53;;;-5.90;99.90;;;-5.23;100.00;99047.56;5036370;28;20496;-81
2024/01/10 02:14:18;;;;;;;7.43;3.70;;;-5.80;99.90;;;-5.20;100.00;99051.69;5036872;28;20472;-81
2024/01/10 02:16:47;;;;;;;7.77;3.93;;;-5.90;99.90;;;-5.19;100.00;99045.72;5038083;28;20461;-82
2024/01/10 02:19:21;;;;;;;9.00;3.73;;;-5.90;99.90;;;-5.21;100.00;99042.41;5042298;28;20476;-81
2024/01/10 02:21:49;;;;;;;4.17;3.50;;;-5.90;99.90;;;-5.24;100.00;99034.91;5039327;28;20437;-82
2024/01/10 02:24:20;;;;;;;5.93;3.50;;;-6.00;99.90;;;-5.23;100.00;99047.56;5040838;28;20440;-81
2024/01/10 02:26:51;;;;;;;6.80;3.97;;;-5.90;99.90;;;-5.27;100.00;99045.19;5039928;28;20628;-82
2024/01/10 02:29:19;;;;;;;3.80;2.80;;;-6.00;99.90;;;-5.33;100.00;99042.91;5040457;28;20447;-82
2024/01/10 02:31:48;;;;;;;7.67;3.40;;;-6.00;99.90;;;-5.28;100.00;99034.19;5039093;28;20471;-81
2024/01/10 02:34:17;;;;;;;3.87;3.23;;;-6.00;99.90;;;-5.21;100.00;99034.78;5040775;28;20555;-82
2024/01/10 02:36:45;;;;;;;6.00;3.20;;;-5.90;99.90;;;-5.21;100.00;99037.31;5039564;28;20489;-82
2024/01/10 02:39:14;;;;;;;3.97;3.23;;;-5.90;99.90;;;-5.17;100.00;99036.31;5040258;28;20974;-82
2024/01/10 02:41:42;;;;;;;5.80;3.43;;;-5.70;99.90;;;-5.10;100.00;99040.22;5038863;28;20433;-82
2024/01/10 02:44:14;;;;;;;4.90;3.63;;;-5.70;99.90;;;-5.14;100.00;99036.16;5040324;28;20807;-82
2024/01/10 02:46:42;;;;;;;9.70;3.73;;;-5.80;99.90;;;-5.10;100.00;99037.66;5041220;28;20469;-81
2024/01/10 02:49:11;;;;;;;13.07;4.43;;;-5.70;99.90;;;-5.07;100.00;99034.19;5039994;28;20441;-82
2024/01/10 02:51:39;;;;;;;9.33;3.40;;;-5.60;99.90;;;-5.08;100.00;99035.91;5039302;28;20495;-82
2024/01/10 02:54:08;;;;;;;10.17;4.07;;;-5.70;99.90;;;-5.04;100.00;99026.41;5038492;28;20455;-81
2024/01/10 02:56:36;;;;;;;9.57;4.30;;;-5.70;99.90;;;-5.01;100.00;99031.34;5038252;28;20509;-80
2024/01/10 02:59:05;;;;;;;7.53;4.23;;;-5.70;99.90;;;-4.99;100.00;99025.28;5039180;28;20473;-81
2024/01/10 03:01:35;;;;;;;8.43;3.53;;;-5.70;99.90;;;-4.91;100.00;99027.50;5041328;28;20904;-82
2024/01/10 03:04:04;;;;;;;8.73;2.80;;;-5.60;99.90;;;-4.90;100.00;99021.53;5041855;28;20448;-82
2024/01/10 03:06:32;;;;;;;5.80;4.00;;;-5.60;99.90;;;-4.94;100.00;99020.84;5040160;28;20433;-81
2024/01/10 03:09:01;;;;;;;11.10;4.90;;;-5.60;99.90;;;-4.91;100.00;99013.03;5041060;28;20469;-80
2024/01/10 03:11:30;;;;;;;5.40;3.93;;;-5.60;99.90;;;-4.92;100.00;99019.03;5042132;28;20972;-81
2024/01/10 03:14:05;;;;;;;13.40;3.90;;;-5.60;99.90;;;-4.91;100.00;99015.59;5041729;28;20508;-82
2024/01/10 03:16:34;;;;;;;5.50;3.30;;;-5.60;99.90;;;-4.88;100.00;99007.81;5040503;28;20461;-81
2024/01/10 03:19:03;;;;;;;8.60;4.17;;;-5.60;99.90;;;-4.81;100.00;99003.25;5041248;28;20548;-80
2024/01/10 03:21:33;;;;;;;8.97;4.00;;;-5.40;99.90;;;-4.75;100.00;98996.16;5042225;28;20497;-82
2024/01/10 03:24:03;;;;;;;5.93;4.00;;;-5.40;99.90;;;-4.73;100.00;99002.03;5041938;28;20470;-81
2024/01/10 03:26:31;;;;;;;9.37;5.30;;;-5.40;99.90;;;-4.73;100.00;98999.50;5040376;28;20440;-81
2024/01/10 03:29:00;;;;;;;5.63;3.77;;;-5.40;99.90;;;-4.70;100.00;98995.97;5040790;28;20473;-81
2024/01/10 03:31:30;;;;;;;8.23;4.17;;;-5.30;98.90;;;-4.64;100.00;99000.78;5040735;28;20484;-81
2024/01/10 03:34:00;;;;;;;10.57;5.00;;;-5.30;99.20;;;-4.63;100.00;99003.28;5042959;28;20497;-82
2024/01/10 03:36:29;;;;;;;9.77;4.33;;;-5.30;99.30;;;-4.63;100.00;98995.63;5040081;28;20447;-82
2024/01/10 03:38:57;;;;;;;7.53;4.03;;;-5.30;99.10;;;-4.61;100.00;99004.03;5038439;28;20467;-82
2024/01/10 03:41:26;;;;;;;7.37;4.63;;;-5.30;98.80;;;-4.57;100.00;98991.94;5038258;28;20481;-81
2024/01/10 03:43:54;;;;;;;9.50;4.93;;;-5.20;99.00;;;-4.57;100.00;98991.94;5037381;28;20467;-81
2024/01/10 03:46:23;;;;;;;9.70;4.03;;;-5.20;98.90;;;-4.58;100.00;98988.56;5038600;28;20805;-81
2024/01/10 03:48:52;;;;;;;6.20;4.40;;;-5.30;98.90;;;-4.58;100.00;98993.69;5037222;28;20464;-81
2024/01/10 03:51:22;;;;;;;6.10;3.80;;;-5.20;99.20;;;-4.53;100.00;98985.00;5039497;28;21118;-83
2024/01/10 03:53:50;;;;;;;9.70;4.77;;;-5.20;98.70;;;-4.54;100.00;98996.09;5037952;28;21007;-82
2024/01/10 03:56:19;;;;;;;7.90;5.00;;;-5.20;98.60;;;-4.54;100.00;98991.81;5037481;28;20428;-81
2024/01/10 03:58:49;;;;;;;9.47;4.30;;;-5.20;98.90;;;-4.57;100.00;99003.00;5037657;28;20593;-82
2024/01/10 04:01:17;;;;;;;7.93;4.30;;;-5.20;99.10;;;-4.49;100.00;98986.50;5040712;28;20842;-81
2024/01/10 04:03:46;;;;;;;6.20;4.53;;;-5.10;99.20;;;-4.48;100.00;99003.47;5042715;28;20473;-82
2024/01/10 04:06:15;;;;;;;7.20;4.80;;;-5.10;98.90;;;-4.49;100.00;99004.38;5039439;28;20831;-79
2024/01/10 04:08:45;;;;;;;7.80;4.70;;;-5.10;99.10;;;-4.45;100.00;99000.78;5037066;28;20564;-83
2024/01/10 04:11:13;;;;;;;8.87;4.83;;;-5.10;98.60;;;-4.44;100.00;98993.03;5038188;28;20924;-81
2024/01/10 04:13:42;;;;;;;10.70;4.57;;;-5.10;99.00;;;-4.39;100.00;99000.50;5039547;28;20536;-81
2024/01/10 04:16:10;;;;;;;10.43;4.43;;;-5.00;98.60;;;-4.40;100.00;98996.28;5037082;28;20553;-82
2024/01/10 04:18:39;;;;;;;10.77;5.50;;;-5.10;98.90;;;-4.37;100.00;98991.06;5037458;28;20437;-82
2024/01/10 04:21:08;;;;;;;10.27;5.97;;;-5.10;98.60;;;-4.38;100.00;98997.06;5036690;28;20544;-80
2024/01/10 04:23:37;;;;;;;6.83;3.90;;;-5.10;97.20;;;-4.33;100.00;98998.47;5039573;28;20533;-83
2024/01/10 04:26:07;;;;;;;12.93;5.53;;;-5.00;97.30;;;-4.32;100.00;98997.59;5038618;28;20436;-79
2024/01/10 04:28:35;;;;;;;8.60;4.40;;;-5.00;97.70;;;-4.23;100.00;99003.97;5041070;28;20474;-79
2024/01/10 04:31:04;;;;;;;8.37;4.33;;;-4.90;98.30;;;-4.24;100.00;99005.72;5036914;28;20936;-79
2024/01/10 04:33:32;;;;;;;10.43;5.40;;;-4.80;98.30;;;-4.20;100.00;99001.31;5039036;28;20834;-79
2024/01/10 04:36:01;;;;;;;20.67;6.13;;;-4.80;98.40;;;-4.15;100.00;98999.34;5038369;28;20435;-79
2024/01/10 04:38:29;;;;;;;8.77;5.40;;;-4.80;98.80;;;-4.13;100.00;98997.56;5037058;28;20471;-79
2024/01/10 04:40:58;;;;;;;8.07;4.90;;;-4.80;98.50;;;-4.13;100.00;99000.94;5034847;28;20443;-79
2024/01/10 04:43:28;;;;;;;13.77;4.50;;;-4.80;98.30;;;-4.10;100.00;99002.53;5036793;28;21058;-80
2024/01/10 04:45:57;;;;;;;10.63;6.20;;;-4.80;98.20;;;-4.08;100.00;99000.72;5036648;28;20568;-79
2024/01/10 04:48:25;;;;;;;7.00;3.77;;;-4.70;97.70;;;-4.07;100.00;99002.38;5036684;28;20463;-79
2024/01/10 04:50:54;;;;;;;13.43;5.80;;;-4.60;97.70;;;-4.09;100.00;99005.00;5036877;28;20455;-79
2024/01/10 04:53:23;;;;;;;13.93;5.30;;;-4.60;97.10;;;-4.07;100.00;98998.09;5035608;28;20478;-80
2024/01/10 04:55:52;;;;;;;9.97;4.80;;;-4.70;97.60;;;-4.01;100.00;98999.53;5036729;28;20533;-81
2024/01/10 04:58:20;;;;;;;11.30;4.53;;;-4.50;97.70;;;-4.06;100.00;98996.34;5036817;28;20472;-81
2024/01/10 05:00:51;;;;;;;10.97;5.13;;;-4.70;97.60;;;-4.04;100.00;98998.84;5036321;28;20437;-81
2024/01/10 05:03:19;;;;;;;9.20;5.00;;;-4.60;97.40;;;-4.01;100.00;98996.16;5037405;28;20458;-79
2024/01/10 05:05:48;;;;;;;11.90;5.20;;;-4.70;97.00;;;-3.98;100.00;99001.94;5039158;28;20810;-79
2024/01/10 05:08:20;;;;;;;10.10;4.80;;;-4.70;96.80;;;-3.91;100.00;99000.75;5039534;28;20469;-79
2024/01/10 05:10:49;;;;;;;9.53;4.43;;;-4.60;97.20;;;-3.95;100.00;98998.41;5039460;28;20470;-80
2024/01/10 05:13:17;;;;;;;11.93;5.67;;;-4.60;96.80;;;-3.91;100.00;98995.63;5038539;28;20505;-80
2024/01/10 05:15:46;;;;;;;14.03;5.70;;;-4.60;96.90;;;-3.90;100.00;99001.56;5038425;28;20483;-80
2024/01/10 05:18:17;;;;;;;8.03;4.40;;;-4.50;96.80;;;-3.91;100.00;98998.19;5039228;28;20469;-79
2024/01/10 05:20:46;;;;;;;9.07;4.80;;;-4.50;97.10;;;-3.92;100.00;98993.97;5039475;28;20442;-80
2024/01/10 05:23:14;;;;;;;7.37;3.97;;;-4.60;96.70;;;-3.99;100.00;99002.03;5039098;28;20472;-79
2024/01/10 05:25:43;;;;;;;10.13;5.33;;;-4.50;96.40;;;-3.99;100.00;98990.06;5037084;28;20504;-79
2024/01/10 05:28:12;;;;;;;10.23;5.03;;;-4.60;96.30;;;-3.99;100.00;98990.06;5038619;28;20451;-80
2024/01/10 05:30:42;;;;;;;9.07;4.27;;;-4.60;96.70;;;-4.01;100.00;98996.97;5035247;28;20459;-79
2024/01/10 05:33:11;;;;;;;14.27;5.83;;;-4.60;96.70;;;-4.06;100.00;99004.00;5037183;28;20513;-78
2024/01/10 05:35:42;;;;;;;10.57;5.47;;;-4.60;96.60;;;-4.00;100.00;98998.63;5035190;28;20515;-78
2024/01/10 05:38:10;;;;;;;12.73;5.77;;;-4.50;96.90;;;-4.02;100.00;98997.03;5037045;28;20434;-79
2024/01/10 05:40:39;;;;;;;13.43;6.50;;;-4.60;96.60;;;-4.04;100.00;98991.19;5035320;28;20582;-79
2024/01/10 05:43:08;;;;;;;8.90;5.10;;;-4.60;96.80;;;-3.96;100.00;98992.50;5038907;28;20464;-78
2024/01/10 05:45:36;;;;;;;11.30;4.80;;;-4.60;96.90;;;-3.87;100.00;98991.19;5037922;28;20457;-79
2024/01/10 05:48:06;;;;;;;12.37;4.97;;;-4.50;96.90;;;-3.80;100.00;98990.84;5039477;28;20458;-78
2024/01/10 05:50:35;;;;;;;11.90;5.20;;;-4.40;97.00;;;-3.82;100.00;98987.53;5040621;28;20516;-78
2024/01/10 05:53:05;;;;;;;10.37;5.27;;;-4.50;96.80;;;-3.78;100.00;98989.03;5039340;28;20485;-78
2024/01/10 05:55:34;;;;;;;12.00;5.67;;;-4.40;96.90;;;-3.81;100.00;98984.06;5042221;28;20949;-79
2024/01/10 05:58:02;;;;;;;10.73;5.37;;;-4.40;96.40;;;-3.80;100.00;98988.28;5042728;28;20587;-79
2024/01/10 06:00:31;;;;;;;11.90;5.70;;;-4.40;96.80;;;-3.81;100.00;98989.19;5042375;28;20469;-78
2024/01/10 06:03:00;;;;;;;10.17;5.10;;;-4.40;97.20;;;-3.83;100.00;98991.00;5042587;28;21214;-79
2024/01/10 06:05:29;;;;;;;11.67;5.23;;;-4.40;96.80;;;-3.81;100.00;98989.19;5040929;28;20475;-79
2024/01/10 06:07:57;;;;;;;10.37;5.00;;;-4.40;96.80;;;-3.80;100.00;98990.84;5042306;28;20473;-78
2024/01/10 06:10:29;;;;;;;7.03;4.73;;;-4.40;96.70;;;-3.81;100.00;98993.44;5042183;28;20461;-78
2024/01/10 06:12:57;;;;;;;7.87;4.70;;;-4.30;96.50;;;-3.81;100.00;98989.19;5038756;28;20908;-79
2024/01/10 06:15:26;;;;;;;21.17;5.70;;;-4.20;96.60;;;-3.81;100.00;98986.63;5039728;28;20533;-78
2024/01/10 06:17:54;;;;;;;14.57;6.17;;;-4.30;96.30;;;-3.78;100.00;98994.13;5040646;28;20475;-78
2024/01/10 06:20:23;;;;;;;10.10;6.00;;;-4.40;96.70;;;-3.76;100.00;98994.06;5040336;28;20868;-79
2024/01/10 06:22:52;;;;;;;12.47;5.30;;;-4.40;97.30;;;-3.74;100.00;98990.53;5041794;28;20476;-78
2024/01/10 06:25:20;;;;;;;10.07;4.67;;;-4.40;97.30;;;-3.73;100.00;98987.09;5039961;28;21193;-78
2024/01/10 06:27:50;;;;;;;13.40;5.23;;;-4.40;96.70;;;-3.71;100.00;98999.75;5041413;28;20522;-79
2024/01/10 06:30:19;;;;;;;11.00;5.90;;;-4.40;96.90;;;-3.71;100.00;98992.94;5040444;28;20463;-79
2024/01/10 06:32:47;;;;;;;13.10;6.03;;;-4.30;96.60;;;-3.67;100.00;98996.16;5041651;28;20447;-78
2024/01/10 06:35:16;;;;;;;10.00;5.40;;;-4.40;96.50;;;-3.68;100.00;99003.00;5040244;28;20469;-78
2024/01/10 06:37:44;;;;;;;16.03;6.63;;;-4.40;96.90;;;-3.65;100.00;98995.22;5041503;28;20464;-79
2024/01/10 06:40:13;;;;;;;12.30;5.80;;;-4.30;97.00;;;-3.66;100.00;98993.53;5040080;28;20465;-78
2024/01/10 06:42:42;;;;;;;12.00;5.63;;;-4.30;96.90;;;-3.65;100.00;98990.09;5038538;28;20468;-78
2024/01/10 06:45:12;;;;;;;9.03;5.10;;;-4.30;97.10;;;-3.56;100.00;98999.03;5041383;28;20496;-79
2024/01/10 06:47:40;;;;;;;12.17;4.93;;;-4.20;96.80;;;-3.56;100.00;98997.31;5040016;28;20976;-78
2024/01/10 06:50:11;;;;;;;10.03;5.10;;;-4.20;96.70;;;-3.59;100.00;98999.19;5039290;28;20975;-79
2024/01/10 06:52:39;;;;;;;11.20;6.27;;;-4.30;96.90;;;-3.61;100.00;99001.00;5041810;28;20959;-79
2024/01/10 06:55:09;;;;;;;17.00;6.77;;;-4.30;96.50;;;-3.57;100.00;99008.41;5041666;28;20531;-79
2024/01/10 06:57:37;;;;;;;13.10;5.63;;;-4.20;96.70;;;-3.59;100.00;99007.69;5042108;28;20847;-78
2024/01/10 07:00:10;;;;;;;11.17;6.23;;;-4.30;96.80;;;-3.59;100.00;99012.78;5041055;28;20847;-79
2024/01/10 07:02:41;;;;;;;11.20;5.73;;;-4.30;97.30;;;-3.60;100.00;99016.22;5040358;28;20457;-79
2024/01/10 07:05:10;;;;;;;11.10;5.50;;;-4.30;97.60;;;-3.53;100.00;99013.38;5043052;28;20540;-78
2024/01/10 07:07:39;;;;;;;10.80;5.63;;;-4.20;97.30;;;-3.58;100.00;99017.00;5043150;28;20473;-79
2024/01/10 07:10:08;;;;;;;8.67;4.87;;;-4.20;96.80;;;-3.54;100.00;99024.50;5041592;28;20814;-78
2024/01/10 07:12:37;;;;;;;10.83;6.20;;;-4.20;97.10;;;-3.56;100.00;99027.13;5040729;28;21263;-78
2024/01/10 07:15:07;;;;;;;16.13;7.10;;;-4.20;96.80;;;-3.59;100.00;99028.13;5043334;28;20499;-78
2024/01/10 07:17:36;;;;;;;16.87;6.30;;;-4.30;96.90;;;-3.53;100.00;99033.81;5042496;28;20439;-78
2024/01/10 07:20:08;;;;;;;14.90;5.70;;;-4.20;97.00;;;-3.49;100.00;99030.22;5043184;28;20513;-78
2024/01/10 07:22:39;;;;;;;15.47;5.73;;;-4.20;96.80;;;-3.48;100.00;99027.59;5042161;28;20461;-78
2024/01/10 07:25:09;;;;;;;11.97;6.20;;;-4.10;96.90;;;-3.50;100.00;99024.25;5043257;28;20553;-81
2024/01/10 07:27:38;;;;;;;11.13;5.87;;;-4.00;96.70;;;-3.50;100.00;99028.53;5040486;28;20478;-78
2024/01/10 07:30:13;;;;;;;10.20;5.30;;;-4.10;96.80;;;-3.54;100.00;99032.19;5041264;28;20456;-78
2024/01/10 07:32:43;;;;;;;7.77;4.73;;;-4.20;97.10;;;-3.48;100.00;99034.44;5038750;28;20936;-78
2024/01/10 07:35:14;;;;;;;10.33;5.40;;;-4.10;97.10;;;-3.51;100.00;99032.03;5039362;28;20583;-79
2024/01/10 07:37:44;;;;;;;13.53;5.93;;;-4.20;97.10;;;-3.50;100.00;99033.66;5039384;28;20464;-78
2024/01/10 07:40:13;;;;;;;9.43;5.10;;;-4.20;97.20;;;-3.46;100.00;99032.63;5040667;28;20458;-78
2024/01/10 07:42:42;;;;;;;10.53;5.37;;;-4.20;97.20;;;-3.52;100.00;99033.75;5040817;28;20466;-79
2024/01/10 07:45:11;;;;;;;24.23;6.53;;;-4.20;97.30;;;-3.52;100.00;99035.47;5040824;28;20462;-79
2024/01/10 07:47:39;;;;;;;12.80;5.70;;;-4.20;97.10;;;-3.57;100.00;99036.53;5041609;28;20959;-79
2024/01/10 07:50:10;;;;;;;15.40;6.47;;;-4.30;97.10;;;-3.57;100.00;99028.84;5041176;28;20471;-78
2024/01/10 07:52:40;;;;;;;11.00;4.97;;;-4.20;97.30;;;-3.54;100.00;99037.28;5041952;28;20936;-79
2024/01/10 07:55:10;;;;;;;14.40;7.23;;;-4.20;97.30;;;-3.50;100.00;99038.78;5041298;28;20536;-79
2024/01/10 07:57:39;;;;;;;20.00;6.77;;;-4.20;97.20;;;-3.54;100.00;99040.69;5039938;28;20475;-78
2024/01/10 08:00:10;;;;;;;7.50;5.43;;;-4.20;97.10;;;-3.57;100.00;99038.25;5040713;28;20647;-79
2024/01/10 08:02:39;;;;;;;17.03;6.80;;;-4.20;97.10;;;-3.59;100.00;99046.00;5040177;28;20977;-79
2024/01/10 08:05:09;;;;;;;15.17;5.80;;;-4.30;97.10;;;-3.61;100.00;99049.53;5042604;28;20575;-79
2024/01/10 08:07:39;;;;;;;13.63;5.77;;;-4.30;97.30;;;-3.58;100.00;99057.06;5039614;28;20492;-78
2024/01/10 08:10:10;;;;;;;12.67;6.10;;;-4.30;97.80;;;-3.63;100.00;99047.06;5041880;28;20871;-79
2024/01/10 08:12:39;;;;;;;12.10;5.63;;;-4.40;97.60;;;-3.61;100.00;99059.75;5041202;28;20572;-79
2024/01/10 08:15:08;;;;;;;12.83;6.97;;;-4.30;97.50;;;-3.59;100.00;99063.91;5039200;28;20571;-79
2024/01/10 08:17:37;;;;;;;16.37;6.23;;;-4.40;98.00;;;-3.63;100.00;99057.28;5039970;28;20461;-78
2024/01/10 08:20:10;;;;;;;11.73;5.63;;;-4.40;97.30;;;-3.62;100.00;99065.78;5036612;28;20469;-78
2024/01/10 08:22:43;;;;;;;15.10;6.67;;;-4.30;97.90;;;-3.59;100.00;99066.44;5038530;28;20871;-79
2024/01/10 08:25:12;;;;;;;13.20;5.80;;;-4.30;97.70;;;-3.62;100.00;99071.72;5038424;28;20447;-79
2024/01/10 08:27:41;;;;;;;16.70;7.43;;;-4.40;97.70;;;-3.65;100.00;99065.91;5038557;28;20461;-79
2024/01/10 08:30:13;;;;;;;16.17;6.60;;;-4.40;98.60;;;-3.66;100.00;99067.66;5038149;28;20467;-78
2024/01/10 08:32:41;;;;;;;18.83;7.33;;;-4.40;98.50;;;-3.64;100.00;99072.66;5038463;28;20486;-79
2024/01/10 08:35:10;;;;;;;10.90;6.00;;;-4.30;98.60;;;-3.58;100.00;99073.22;5037451;28;20476;-78
2024/01/10 08:37:42;;;;;;;18.43;6.40;;;-4.30;98.20;;;-3.58;100.00;99077.50;5039802;28;20543;-79
2024/01/10 08:40:14;;;;;;;17.10;6.30;;;-4.30;98.20;;;-3.65;100.00;99069.31;5039162;28;20485;-78
2024/01/10 08:42:43;;;;;;;19.47;6.97;;;-4.40;97.60;;;-3.63;100.00;99064.09;5038562;28;20463;-78
2024/01/10 08:45:12;;;;;;;14.60;7.30;;;-4.30;98.20;;;-3.60;100.00;99066.50;5038755;28;20467;-78
2024/01/10 08:47:41;;;;;;;11.93;6.20;;;-4.40;98.30;;;-3.59;100.00;99071.56;5039705;28;20505;-78
2024/01/10 08:50:12;;;;;;;14.67;6.10;;;-4.30;98.00;;;-3.56;100.00;99063.75;5039846;28;20466;-78
2024/01/10 08:52:41;;;;;;;11.10;6.27;;;-4.30;98.10;;;-3.54;100.00;99079.00;5041786;28;21125;-78
2024/01/10 08:55:10;;;;;;;18.17;7.13;;;-4.30;97.90;;;-3.56;100.00;99073.97;5037550;28;20503;-79
2024/01/10 08:57:41;;;;;;;14.70;6.77;;;-4.20;97.80;;;-3.50;100.00;99069.44;5040239;28;20477;-79
2024/01/10 09:00:12;;;;;;;11.77;6.33;;;-4.20;97.50;;;-3.55;100.00;99077.34;5041074;28;20468;-79
2024/01/10 09:02:41;;;;;;;10.17;6.60;;;-4.20;97.70;;;-3.50;100.00;99065.16;5038786;28;20501;-78
2024/01/10 09:05:10;;;;;;;17.17;7.00;;;-4.10;97.70;;;-3.44;100.00;99066.59;5040296;28;21158;-78
2024/01/10 09:07:42;;;;;;;13.47;6.17;;;-4.00;97.30;;;-3.39;100.00;99069.75;5041041;28;20463;-79
2024/01/10 09:10:11;;;;;;;17.07;6.57;;;-3.90;97.30;;;-3.37;100.00;99073.91;5039776;28;20553;-78
2024/01/10 09:12:43;;;;;;;15.17;6.03;;;-4.00;97.50;;;-3.35;100.00;99076.38;5039606;28;20442;-78
2024/01/10 09:15:13;;;;;;;18.70;6.20;;;-3.90;97.30;;;-3.32;100.00;99073.66;5037814;28;20554;-78
2024/01/10 09:17:42;;;;;;;12.20;5.90;;;-3.90;97.10;;;-3.30;100.00;99062.47;5038599;28;20436;-78
2024/01/10 09:20:12;;;;;;;11.70;5.73;;;-3.90;97.10;;;-3.28;100.00;99052.16;5036109;28;20571;-79
2024/01/10 09:22:42;;;;;;;15.30;6.40;;;-3.80;97.00;;;-3.24;100.00;99061.34;5037481;28;20508;-78
2024/01/10 09:25:12;;;;;;;17.43;6.97;;;-3.80;96.80;;;-3.23;100.00;99070.66;5037078;28;20925;-79
2024/01/10 09:27:43;;;;;;;17.87;7.60;;;-3.80;96.80;;;-3.19;100.00;99077.25;5043626;28;20466;-79
2024/01/10 09:30:16;;;;;;;11.40;5.70;;;-3.70;97.00;;;-3.19;100.00;99085.75;5042065;28;20429;-79
2024/01/10 09:32:46;;;;;;;11.03;5.60;;;-3.70;97.00;;;-3.20;100.00;99081.56;5042432;28;20949;-79
2024/01/10 09:35:15;;;;;;;13.57;6.50;;;-3.70;96.70;;;-3.18;100.00;99087.44;5041823;28;20503;-79
2024/01/10 09:37:46;;;;;;;17.57;6.97;;;-3.70;96.70;;;-3.18;100.00;99089.16;5040530;28;20445;-79
2024/01/10 09:40:17;;;;;;;11.63;5.60;;;-3.70;96.80;;;-3.17;100.00;99083.16;5041562;28;20842;-78
2024/01/10 09:42:50;;;;;;;12.33;5.70;;;-3.70;96.90;;;-3.08;100.00;99087.78;5040067;28;20462;-78
2024/01/10 09:45:22;;;;;;;15.20;5.90;;;-3.70;97.10;;;-3.06;100.00;99091.94;5040165;28;20465;-80
2024/01/10 09:47:56;;;;;;;14.97;6.57;;;-3.60;97.30;;;-3.04;100.00;99099.53;5039503;28;20465;-79
2024/01/10 09:50:26;;;;;;;18.47;7.60;;;-3.60;97.10;;;-3.00;100.00;99095.91;5040842;28;20557;-79
2024/01/10 09:53:07;;;;;;;14.53;6.90;;;-3.50;97.00;;;-2.98;100.00;99104.31;5041479;28;20514;-79
2024/01/10 09:55:38;;;;;;;13.93;5.70;;;-3.60;97.10;;;-2.98;100.00;99096.66;5041036;28;20482;-79
2024/01/10 09:58:08;;;;;;;10.50;5.60;;;-3.60;97.10;;;-2.96;100.00;99084.63;5040570;28;20469;-78
2024/01/10 10:00:38;;;;;;;25.03;6.90;;;-3.60;97.10;;;-2.89;100.00;99092.81;5042057;28;20926;-79
2024/01/10 10:03:11;;;;;;;10.93;5.70;;;-3.50;97.20;;;-2.83;100.00;99098.44;5041830;28;20843;-78
2024/01/10 10:05:41;;;;;;;16.30;7.30;;;-3.50;97.30;;;-2.81;100.00;99096.63;5040956;28;20471;-80
2024/01/10 10:08:19;;;;;;;13.47;7.00;;;-3.40;97.10;;;-2.76;100.00;99087.00;5041772;28;20473;-78
2024/01/10 10:10:50;;;;;;;13.67;6.30;;;-3.30;97.10;;;-2.71;100.00;99082.47;5040288;28;20518;-79
2024/01/10 10:13:41;;;;;;;14.97;6.30;;;-3.10;97.20;;;-2.71;100.00;99082.47;5041531;28;20643;-78
2024/01/10 10:16:12;;;;;;;13.57;6.10;;;-3.20;96.90;;;-2.67;99.73;99089.06;5043559;28;20517;-79